createdAt,value
2023-05-24T00:00:31.735Z,74.22
2023-05-24T00:01:31.745Z,74.43
2023-05-24T00:02:31.892Z,74.58
2023-05-24T00:03:32.001Z,74.92
2023-05-24T00:04:32.065Z,74.50
2023-05-24T00:05:32.082Z,74.73
2023-05-24T00:06:32.158Z,74.70
2023-05-24T00:07:32.270Z,74.93
2023-05-24T00:08:32.338Z,74.61
2023-05-24T00:09:32.390Z,74.61
2023-05-24T00:10:32.481Z,74.69
2023-05-24T00:11:32.569Z,74.59
2023-05-24T00:12:32.657Z,74.71
2023-05-24T00:13:32.740Z,74.65
2023-05-24T00:14:32.823Z,74.80
2023-05-24T00:15:32.913Z,74.66
2023-05-24T00:16:33.047Z,74.66
2023-05-24T00:17:33.083Z,74.97
2023-05-24T00:18:33.145Z,74.87
2023-05-24T00:19:33.217Z,74.70
2023-05-24T00:20:33.324Z,74.43
2023-05-24T00:21:33.394Z,74.44
2023-05-24T00:22:33.474Z,74.47
2023-05-24T00:23:33.556Z,74.50
2023-05-24T00:24:33.643Z,74.53
2023-05-24T00:25:33.761Z,74.40
2023-05-24T00:26:33.783Z,74.34
2023-05-24T00:27:33.875Z,74.52
2023-05-24T00:28:33.949Z,74.46
2023-05-24T00:29:34.017Z,74.64
2023-05-24T00:30:34.091Z,74.79
2023-05-24T00:31:34.175Z,74.75
2023-05-24T00:32:34.282Z,74.64
2023-05-24T00:33:34.347Z,74.87
2023-05-24T00:34:34.423Z,74.40
2023-05-24T00:35:34.509Z,74.59
2023-05-24T00:36:34.560Z,74.27
2023-05-24T00:37:34.661Z,74.14
2023-05-24T00:38:34.760Z,74.20
2023-05-24T00:39:34.842Z,74.17
2023-05-24T00:40:34.927Z,74.09
2023-05-24T00:41:34.982Z,73.91
2023-05-24T00:42:35.070Z,73.89
2023-05-24T00:43:35.152Z,74.13
2023-05-24T00:44:35.231Z,73.78
2023-05-24T00:45:35.326Z,73.91
2023-05-24T00:46:35.425Z,73.66
2023-05-24T00:47:35.495Z,73.64
2023-05-24T00:48:35.559Z,73.59
2023-05-24T00:49:35.649Z,73.70
2023-05-24T00:50:35.741Z,73.69
2023-05-24T00:51:35.812Z,73.31
2023-05-24T00:52:35.879Z,73.38
2023-05-24T00:53:35.973Z,73.37
2023-05-24T00:54:36.034Z,73.29
2023-05-24T00:55:36.120Z,73.35
2023-05-24T00:56:36.194Z,73.10
2023-05-24T00:57:36.277Z,73.22
2023-05-24T00:58:36.370Z,73.21
2023-05-24T00:59:36.448Z,73.36
2023-05-24T01:00:36.531Z,73.36
2023-05-24T01:01:36.635Z,73.29
2023-05-24T01:02:36.764Z,73.34
2023-05-24T01:03:36.874Z,73.34
2023-05-24T01:04:36.879Z,73.41
2023-05-24T01:05:36.991Z,73.38
2023-05-24T01:06:37.027Z,73.71
2023-05-24T01:07:37.117Z,74.04
2023-05-24T01:08:38.756Z,74.39
2023-05-24T01:09:37.315Z,74.54
2023-05-24T01:10:37.397Z,74.68
2023-05-24T01:11:37.501Z,74.89
2023-05-24T01:12:37.564Z,74.83
2023-05-24T01:13:37.683Z,75.03
2023-05-24T01:14:37.723Z,75.08
2023-05-24T01:15:37.820Z,75.41
2023-05-24T01:16:37.940Z,75.59
2023-05-24T01:17:38.042Z,75.86
2023-05-24T01:18:38.003Z,75.97
2023-05-24T01:19:38.093Z,75.54
2023-05-24T01:20:38.624Z,75.40
2023-05-24T01:21:38.279Z,75.47
2023-05-24T01:22:38.371Z,75.19
2023-05-24T01:23:38.441Z,75.34
2023-05-24T01:24:38.527Z,75.21
2023-05-24T01:25:38.609Z,74.95
2023-05-24T01:26:38.713Z,75.27
2023-05-24T01:27:38.793Z,75.25
2023-05-24T01:28:38.896Z,75.08
2023-05-24T01:29:38.996Z,75.08
2023-05-24T01:30:39.084Z,74.89
2023-05-24T01:31:39.179Z,75.19
2023-05-24T01:32:39.283Z,74.56
2023-05-24T01:33:39.284Z,74.43
2023-05-24T01:34:39.383Z,74.58
2023-05-24T01:35:39.473Z,74.65
2023-05-24T01:36:39.564Z,74.45
2023-05-24T01:37:39.629Z,74.56
2023-05-24T01:38:39.751Z,74.76
2023-05-24T01:39:39.770Z,74.27
2023-05-24T01:40:39.937Z,74.26
2023-05-24T01:41:39.946Z,74.41
2023-05-24T01:42:40.033Z,74.43
2023-05-24T01:43:40.112Z,74.24
2023-05-24T01:44:40.202Z,74.29
2023-05-24T01:45:40.282Z,74.37
2023-05-24T01:46:40.419Z,74.39
2023-05-24T01:47:40.483Z,74.63
2023-05-24T01:48:40.517Z,74.39
2023-05-24T01:49:40.598Z,74.47
2023-05-24T01:50:40.814Z,74.67
2023-05-24T01:51:40.794Z,74.33
2023-05-24T01:52:40.876Z,74.16
2023-05-24T01:53:40.967Z,74.33
2023-05-24T01:54:41.020Z,74.16
2023-05-24T01:55:41.100Z,74.26
2023-05-24T01:56:41.182Z,74.28
2023-05-24T01:57:41.254Z,74.09
2023-05-24T01:58:41.345Z,74.08
2023-05-24T01:59:41.420Z,73.84
2023-05-24T02:00:41.942Z,73.92
2023-05-24T02:01:41.656Z,73.97
2023-05-24T02:02:41.780Z,73.75
2023-05-24T02:03:41.730Z,73.86
2023-05-24T02:04:41.816Z,73.73
2023-05-24T02:05:41.928Z,73.99
2023-05-24T02:06:41.986Z,73.79
2023-05-24T02:07:42.102Z,73.82
2023-05-24T02:08:42.141Z,73.71
2023-05-24T02:09:42.168Z,73.57
2023-05-24T02:10:42.434Z,73.76
2023-05-24T02:11:42.320Z,73.88
2023-05-24T02:12:42.381Z,73.70
2023-05-24T02:13:42.476Z,73.85
2023-05-24T02:14:42.590Z,73.98
2023-05-24T02:15:42.614Z,73.87
2023-05-24T02:16:43.018Z,74.08
2023-05-24T02:17:42.903Z,74.29
2023-05-24T02:18:42.864Z,74.22
2023-05-24T02:19:42.966Z,73.97
2023-05-24T02:20:43.264Z,74.09
2023-05-24T02:21:43.149Z,73.59
2023-05-24T02:22:43.233Z,73.64
2023-05-24T02:23:43.305Z,73.38
2023-05-24T02:24:43.373Z,73.34
2023-05-24T02:25:43.449Z,73.41
2023-05-24T02:26:43.787Z,73.50
2023-05-24T02:27:43.617Z,73.48
2023-05-24T02:28:43.725Z,73.36
2023-05-24T02:29:47.153Z,73.20
2023-05-24T02:30:44.195Z,73.49
2023-05-24T02:31:43.967Z,73.68
2023-05-24T02:32:44.126Z,73.50
2023-05-24T02:33:44.174Z,73.68
2023-05-24T02:34:44.232Z,73.70
2023-05-24T02:35:44.549Z,73.58
2023-05-24T02:36:44.426Z,73.50
2023-05-24T02:37:44.511Z,73.25
2023-05-24T02:38:44.607Z,73.40
2023-05-24T02:39:44.649Z,73.38
2023-05-24T02:40:44.873Z,73.61
2023-05-24T02:41:44.840Z,73.55
2023-05-24T02:42:44.853Z,73.17
2023-05-24T02:43:44.941Z,73.28
2023-05-24T02:44:45.171Z,73.55
2023-05-24T02:45:45.101Z,73.37
2023-05-24T02:46:45.233Z,73.00
2023-05-24T02:47:47.194Z,73.22
2023-05-24T02:48:45.330Z,73.24
2023-05-24T02:49:45.417Z,73.23
2023-05-24T02:50:45.549Z,73.28
2023-05-24T02:51:45.581Z,73.31
2023-05-24T02:52:45.678Z,73.39
2023-05-24T02:53:45.770Z,73.27
2023-05-24T02:54:45.844Z,73.14
2023-05-24T02:55:45.914Z,73.17
2023-05-24T02:56:46.013Z,73.16
2023-05-24T02:57:46.055Z,73.11
2023-05-24T02:58:46.142Z,72.69
2023-05-24T02:59:47.132Z,73.30
2023-05-24T03:00:46.300Z,73.12
2023-05-24T03:01:46.412Z,73.26
2023-05-24T03:02:46.594Z,73.07
2023-05-24T03:03:46.622Z,73.14
2023-05-24T03:04:46.630Z,72.75
2023-05-24T03:05:47.167Z,72.89
2023-05-24T03:06:46.787Z,72.62
2023-05-24T03:07:46.855Z,72.76
2023-05-24T03:08:48.704Z,72.88
2023-05-24T03:09:47.003Z,72.70
2023-05-24T03:10:47.132Z,72.68
2023-05-24T03:11:47.203Z,72.72
2023-05-24T03:12:47.239Z,72.68
2023-05-24T03:13:47.313Z,72.63
2023-05-24T03:14:49.167Z,72.85
2023-05-24T03:15:47.533Z,73.20
2023-05-24T03:16:47.546Z,72.82
2023-05-24T03:17:47.683Z,73.04
2023-05-24T03:18:47.716Z,72.95
2023-05-24T03:19:47.927Z,72.83
2023-05-24T03:20:47.932Z,72.69
2023-05-24T03:21:47.978Z,72.81
2023-05-24T03:22:48.034Z,72.69
2023-05-24T03:23:48.689Z,72.89
2023-05-24T03:24:48.202Z,72.65
2023-05-24T03:25:48.287Z,73.06
2023-05-24T03:26:48.371Z,73.11
2023-05-24T03:27:48.447Z,72.91
2023-05-24T03:28:48.546Z,72.92
2023-05-24T03:29:48.597Z,72.52
2023-05-24T03:30:48.688Z,72.58
2023-05-24T03:31:48.885Z,72.70
2023-05-24T03:32:48.962Z,72.65
2023-05-24T03:33:48.950Z,72.73
2023-05-24T03:34:49.012Z,72.83
2023-05-24T03:35:49.097Z,72.64
2023-05-24T03:36:49.211Z,72.69
2023-05-24T03:37:49.267Z,73.07
2023-05-24T03:38:49.359Z,72.84
2023-05-24T03:39:49.426Z,72.97
2023-05-24T03:40:49.528Z,72.90
2023-05-24T03:41:49.625Z,73.07
2023-05-24T03:42:49.704Z,72.94
2023-05-24T03:43:49.775Z,73.33
2023-05-24T03:44:49.844Z,73.01
2023-05-24T03:45:49.949Z,73.09
2023-05-24T03:46:50.041Z,73.07
2023-05-24T03:47:50.128Z,72.91
2023-05-24T03:48:50.170Z,72.76
2023-05-24T03:49:50.232Z,72.79
2023-05-24T03:50:50.330Z,72.45
2023-05-24T03:51:50.394Z,72.79
2023-05-24T03:52:50.486Z,72.80
2023-05-24T03:53:50.521Z,72.92
2023-05-24T03:54:50.628Z,72.70
2023-05-24T03:55:50.670Z,72.99
2023-05-24T03:56:50.764Z,72.73
2023-05-24T03:57:50.850Z,72.60
2023-05-24T03:58:50.949Z,72.88
2023-05-24T03:59:51.053Z,72.81
2023-05-24T04:00:51.063Z,72.79
2023-05-24T04:01:51.199Z,73.05
2023-05-24T04:02:51.363Z,73.01
2023-05-24T04:03:51.430Z,72.92
2023-05-24T04:04:51.399Z,72.83
2023-05-24T04:05:51.478Z,72.77
2023-05-24T04:06:51.552Z,73.07
2023-05-24T04:07:51.630Z,73.06
2023-05-24T04:08:51.729Z,73.13
2023-05-24T04:09:51.798Z,73.37
2023-05-24T04:10:51.867Z,73.28
2023-05-24T04:11:51.959Z,72.98
2023-05-24T04:12:52.054Z,73.09
2023-05-24T04:13:52.145Z,73.26
2023-05-24T04:14:52.256Z,73.09
2023-05-24T04:15:52.308Z,73.27
2023-05-24T04:16:52.417Z,73.04
2023-05-24T04:17:52.499Z,73.12
2023-05-24T04:18:52.673Z,73.05
2023-05-24T04:19:52.635Z,73.11
2023-05-24T04:20:52.718Z,73.04
2023-05-24T04:21:52.775Z,72.67
2023-05-24T04:22:52.864Z,72.75
2023-05-24T04:23:52.946Z,72.83
2023-05-24T04:24:53.141Z,72.72
2023-05-24T04:25:53.130Z,73.02
2023-05-24T04:26:53.187Z,72.93
2023-05-24T04:27:53.285Z,73.10
2023-05-24T04:28:53.399Z,73.26
2023-05-24T04:29:53.457Z,73.11
2023-05-24T04:30:53.560Z,73.34
2023-05-24T04:31:53.722Z,73.62
2023-05-24T04:32:53.832Z,73.74
2023-05-24T04:33:53.834Z,73.67
2023-05-24T04:34:53.922Z,73.72
2023-05-24T04:35:54.042Z,73.86
2023-05-24T04:36:54.062Z,73.61
2023-05-24T04:37:54.152Z,73.61
2023-05-24T04:38:54.237Z,73.68
2023-05-24T04:39:54.342Z,73.82
2023-05-24T04:40:54.388Z,73.57
2023-05-24T04:41:54.448Z,73.70
2023-05-24T04:42:54.553Z,73.60
2023-05-24T04:43:54.624Z,73.71
2023-05-24T04:44:54.708Z,73.70
2023-05-24T04:45:54.786Z,73.68
2023-05-24T04:46:54.946Z,73.59
2023-05-24T04:47:54.950Z,73.54
2023-05-24T04:48:55.005Z,73.74
2023-05-24T04:49:55.095Z,73.60
2023-05-24T04:50:55.179Z,73.56
2023-05-24T04:51:55.373Z,73.55
2023-05-24T04:52:55.346Z,73.87
2023-05-24T04:53:55.422Z,73.66
2023-05-24T04:54:55.523Z,73.48
2023-05-24T04:55:55.585Z,73.36
2023-05-24T04:56:55.665Z,73.66
2023-05-24T04:57:55.750Z,73.72
2023-05-24T04:58:55.835Z,73.39
2023-05-24T04:59:55.925Z,73.23
2023-05-24T05:00:56.009Z,73.26
2023-05-24T05:01:56.135Z,73.19
2023-05-24T05:02:56.330Z,73.34
2023-05-24T05:03:56.259Z,73.31
2023-05-24T05:04:56.324Z,72.77
2023-05-24T05:05:56.407Z,72.67
2023-05-24T05:06:56.527Z,72.66
2023-05-24T05:07:56.585Z,72.85
2023-05-24T05:08:56.664Z,72.42
2023-05-24T05:09:56.769Z,72.28
2023-05-24T05:10:56.830Z,72.17
2023-05-24T05:11:56.906Z,72.50
2023-05-24T05:12:57.019Z,72.14
2023-05-24T05:13:57.067Z,71.99
2023-05-24T05:14:57.145Z,72.12
2023-05-24T05:15:57.308Z,71.98
2023-05-24T05:16:57.340Z,72.09
2023-05-24T05:17:57.538Z,71.53
2023-05-24T05:18:57.429Z,71.27
2023-05-24T05:19:57.565Z,71.19
2023-05-24T05:20:57.610Z,71.84
2023-05-24T05:21:57.698Z,71.67
2023-05-24T05:22:57.812Z,71.89
2023-05-24T05:23:57.914Z,71.41
2023-05-24T05:24:57.941Z,71.33
2023-05-24T05:25:58.035Z,71.10
2023-05-24T05:26:58.129Z,71.03
2023-05-24T05:27:58.193Z,70.95
2023-05-24T05:28:58.313Z,70.72
2023-05-24T05:29:58.396Z,70.71
2023-05-24T05:30:58.451Z,70.78
2023-05-24T05:31:58.569Z,70.56
2023-05-24T05:32:58.909Z,70.70
2023-05-24T05:33:58.739Z,70.20
2023-05-24T05:34:58.775Z,69.66
2023-05-24T05:35:58.852Z,69.96
2023-05-24T05:36:58.947Z,69.33
2023-05-24T05:37:59.022Z,69.63
2023-05-24T05:38:59.067Z,69.21
2023-05-24T05:39:59.188Z,68.34
2023-05-24T05:40:59.249Z,68.81
2023-05-24T05:41:59.320Z,68.55
2023-05-24T05:42:59.385Z,67.58
2023-05-24T05:43:59.475Z,68.36
2023-05-24T05:44:59.544Z,67.86
2023-05-24T05:45:59.650Z,67.33
2023-05-24T05:46:59.678Z,67.75
2023-05-24T05:47:59.855Z,67.88
2023-05-24T05:48:59.874Z,67.54
2023-05-24T05:49:59.930Z,67.27
2023-05-24T05:51:00.037Z,67.71
2023-05-24T05:52:00.157Z,67.46
2023-05-24T05:53:01.729Z,66.99
2023-05-24T05:54:00.254Z,67.29
2023-05-24T05:55:00.312Z,67.35
2023-05-24T05:56:00.665Z,66.99
2023-05-24T05:57:01.639Z,67.19
2023-05-24T05:58:00.563Z,67.16
2023-05-24T05:59:01.372Z,66.87
2023-05-24T06:00:00.733Z,66.71
2023-05-24T06:01:00.836Z,66.41
2023-05-24T06:02:02.497Z,66.79
2023-05-24T06:03:01.031Z,67.01
2023-05-24T06:04:01.071Z,66.89
2023-05-24T06:05:01.699Z,66.81
2023-05-24T06:06:01.143Z,66.59
2023-05-24T06:07:01.339Z,66.87
2023-05-24T06:08:02.207Z,66.38
2023-05-24T06:09:01.360Z,66.14
2023-05-24T06:10:01.441Z,66.26
2023-05-24T06:11:03.227Z,66.03
2023-05-24T06:12:01.600Z,65.84
2023-05-24T06:13:01.714Z,65.79
2023-05-24T06:14:04.737Z,65.41
2023-05-24T06:15:01.881Z,65.57
2023-05-24T06:16:01.978Z,64.96
2023-05-24T06:17:02.759Z,64.74
2023-05-24T06:18:02.381Z,64.49
2023-05-24T06:19:06.332Z,64.31
2023-05-24T06:20:07.546Z,64.76
2023-05-24T06:21:02.419Z,64.36
2023-05-24T06:22:02.496Z,64.04
2023-05-24T06:23:16.702Z,64.47
2023-05-24T06:24:02.780Z,63.86
2023-05-24T06:25:02.751Z,63.85
2023-05-24T06:26:03.139Z,63.80
2023-05-24T06:27:05.144Z,62.99
2023-05-24T06:28:03.036Z,62.73
2023-05-24T06:29:03.725Z,62.66
2023-05-24T06:30:03.269Z,62.14
2023-05-24T06:31:03.301Z,62.10
2023-05-24T06:32:04.417Z,61.45
2023-05-24T06:33:03.552Z,60.83
2023-05-24T06:34:04.612Z,60.31
2023-05-24T06:35:08.244Z,60.62
2023-05-24T06:36:03.729Z,59.49
2023-05-24T06:37:03.826Z,59.88
2023-05-24T06:38:04.106Z,59.36
2023-05-24T06:39:03.960Z,59.73
2023-05-24T06:40:04.115Z,59.92
2023-05-24T06:41:07.813Z,59.66
2023-05-24T06:42:04.216Z,59.54
2023-05-24T06:43:04.268Z,59.09
2023-05-24T06:44:06.235Z,59.37
2023-05-24T06:45:04.405Z,59.34
2023-05-24T06:46:04.460Z,59.11
2023-05-24T06:47:06.261Z,58.64
2023-05-24T06:48:04.660Z,58.70
2023-05-24T06:49:04.783Z,58.34
2023-05-24T06:50:05.267Z,57.89
2023-05-24T06:51:04.783Z,57.77
2023-05-24T06:52:04.851Z,57.39
2023-05-24T06:53:04.989Z,57.63
2023-05-24T06:54:05.045Z,57.55
2023-05-24T06:55:05.096Z,57.70
2023-05-24T06:56:05.194Z,57.38
2023-05-24T06:57:05.303Z,57.46
2023-05-24T06:58:05.332Z,57.67
2023-05-24T06:59:05.461Z,57.70
2023-05-24T07:00:05.531Z,58.32
2023-05-24T07:01:05.655Z,58.65
2023-05-24T07:02:05.689Z,58.34
2023-05-24T07:03:05.790Z,59.27
2023-05-24T07:04:05.970Z,58.19
2023-05-24T07:05:06.007Z,58.97
2023-05-24T07:06:06.036Z,59.00
2023-05-24T07:07:06.116Z,58.02
2023-05-24T07:08:06.220Z,58.63
2023-05-24T07:09:06.330Z,59.23
2023-05-24T07:10:06.420Z,59.49
2023-05-24T07:11:06.467Z,59.30
2023-05-24T07:12:08.919Z,59.14
2023-05-24T07:13:06.643Z,58.37
2023-05-24T07:14:06.713Z,57.93
2023-05-24T07:15:06.799Z,58.07
2023-05-24T07:16:06.907Z,57.30
2023-05-24T07:17:07.001Z,56.47
2023-05-24T07:18:07.100Z,55.11
2023-05-24T07:19:07.140Z,55.32
2023-05-24T07:20:07.277Z,54.97
2023-05-24T07:21:07.359Z,54.73
2023-05-24T07:22:07.421Z,55.31
2023-05-24T07:23:07.459Z,100.00
2023-05-24T07:24:07.533Z,100.00
2023-05-24T07:25:07.582Z,100.00
2023-05-24T07:26:07.682Z,100.00
2023-05-24T07:27:07.750Z,100.00
2023-05-24T07:28:07.777Z,100.00
2023-05-24T07:29:07.902Z,100.00
2023-05-24T07:30:13.845Z,100.00
2023-05-24T07:31:08.315Z,100.00
2023-05-24T07:32:08.168Z,100.00
2023-05-24T07:33:08.268Z,100.00
2023-05-24T07:34:08.318Z,100.00
2023-05-24T07:35:08.391Z,100.00
2023-05-24T07:36:08.491Z,100.00
2023-05-24T07:37:08.580Z,100.00
2023-05-24T07:38:08.679Z,100.00
2023-05-24T07:39:08.768Z,100.00
2023-05-24T07:40:08.886Z,100.00
2023-05-24T07:41:08.928Z,100.00
2023-05-24T07:42:09.042Z,100.00
2023-05-24T07:43:09.111Z,100.00
2023-05-24T07:44:09.183Z,100.00
2023-05-24T07:45:09.231Z,100.00
2023-05-24T07:46:09.364Z,100.00
2023-05-24T07:47:09.414Z,100.00
2023-05-24T07:48:09.538Z,100.00
2023-05-24T07:49:09.540Z,100.00
2023-05-24T07:50:09.639Z,100.00
2023-05-24T07:51:09.739Z,100.00
2023-05-24T07:52:09.811Z,100.00
2023-05-24T07:53:09.876Z,100.00
2023-05-24T07:54:09.961Z,100.00
2023-05-24T07:55:10.046Z,100.00
2023-05-24T07:56:10.103Z,100.00
2023-05-24T07:57:10.190Z,100.00
2023-05-24T07:58:10.261Z,100.00
2023-05-24T07:59:10.322Z,100.00
2023-05-24T08:00:17.528Z,100.00
2023-05-24T08:01:13.228Z,100.00
2023-05-24T08:02:10.517Z,100.00
2023-05-24T08:03:10.682Z,100.00
2023-05-24T08:04:10.711Z,100.00
2023-05-24T08:05:10.757Z,100.00
2023-05-24T08:06:10.839Z,100.00
2023-05-24T08:07:11.149Z,100.00
2023-05-24T08:08:11.012Z,100.00
2023-05-24T08:09:11.088Z,100.00
2023-05-24T08:10:11.135Z,100.00
2023-05-24T08:11:11.309Z,100.00
2023-05-24T08:12:11.341Z,100.00
2023-05-24T08:13:11.406Z,100.00
2023-05-24T08:14:11.517Z,100.00
2023-05-24T08:15:11.575Z,100.00
2023-05-24T08:16:11.689Z,100.00
2023-05-24T08:17:11.736Z,100.00
2023-05-24T08:18:11.850Z,100.00
2023-05-24T08:19:11.857Z,100.00
2023-05-24T08:20:11.951Z,100.00
2023-05-24T08:21:12.017Z,100.00
2023-05-24T08:22:12.085Z,100.00
2023-05-24T08:23:12.151Z,100.00
2023-05-24T08:24:12.243Z,100.00
2023-05-24T08:25:12.306Z,100.00
2023-05-24T08:26:12.344Z,100.00
2023-05-24T08:27:12.450Z,100.00
2023-05-24T08:28:12.558Z,100.00
2023-05-24T08:29:12.633Z,100.00
2023-05-24T08:30:12.702Z,100.00
2023-05-24T08:31:12.837Z,100.00
2023-05-24T08:32:12.897Z,100.00
2023-05-24T08:33:12.977Z,100.00
2023-05-24T08:34:12.986Z,100.00
2023-05-24T08:35:21.055Z,100.00
2023-05-24T08:36:13.170Z,100.00
2023-05-24T08:37:14.842Z,100.00
2023-05-24T08:38:13.402Z,100.00
2023-05-24T08:39:13.375Z,100.00
2023-05-24T08:40:13.497Z,100.00
2023-05-24T08:41:13.543Z,100.00
2023-05-24T08:42:13.601Z,100.00
2023-05-24T08:43:13.703Z,100.00
2023-05-24T08:44:13.787Z,100.00
2023-05-24T08:45:13.922Z,100.00
2023-05-24T08:48:34.391Z,54.20
2023-05-24T08:49:34.776Z,55.01
2023-05-24T08:50:35.512Z,55.40
2023-05-24T08:51:35.016Z,54.73
2023-05-24T08:52:35.022Z,53.66
2023-05-24T08:53:35.080Z,52.52
2023-05-24T08:54:35.176Z,51.01
2023-05-24T08:55:35.287Z,50.55
2023-05-24T08:56:35.312Z,48.58
2023-05-24T08:57:35.404Z,49.22
2023-05-24T08:58:35.476Z,50.41
2023-05-24T08:59:35.542Z,52.21
2023-05-24T09:00:35.635Z,51.87
2023-05-24T09:01:36.804Z,53.06
2023-05-24T09:02:35.867Z,52.21
2023-05-24T09:03:35.941Z,52.67
2023-05-24T09:04:42.506Z,53.27
2023-05-24T09:05:36.057Z,53.01
2023-05-24T09:06:36.258Z,52.98
2023-05-24T09:07:36.211Z,53.12
2023-05-24T09:08:36.265Z,53.34
2023-05-24T09:09:36.326Z,52.86
2023-05-24T09:10:49.400Z,53.08
2023-05-24T09:11:39.393Z,53.14
2023-05-24T09:12:38.673Z,52.66
2023-05-24T09:13:36.676Z,53.12
2023-05-24T09:14:36.781Z,52.65
2023-05-24T09:15:36.830Z,52.71
2023-05-24T09:16:37.020Z,52.41
2023-05-24T09:17:37.251Z,51.85
2023-05-24T09:18:37.027Z,51.86
2023-05-24T09:19:37.112Z,51.23
2023-05-24T09:20:37.268Z,51.73
2023-05-24T09:21:37.340Z,51.78
2023-05-24T09:22:40.375Z,51.37
2023-05-24T09:23:37.469Z,50.42
2023-05-24T09:24:37.557Z,49.85
2023-05-24T09:25:37.607Z,49.61
2023-05-24T09:26:37.670Z,48.53
2023-05-24T09:27:37.886Z,48.74
2023-05-24T09:28:37.873Z,49.02
2023-05-24T09:29:38.023Z,48.01
2023-05-24T09:30:38.036Z,47.34
2023-05-24T09:31:38.855Z,47.95
2023-05-24T09:32:38.383Z,47.84
2023-05-24T09:33:38.251Z,49.13
2023-05-24T09:34:38.353Z,50.44
2023-05-24T09:35:38.413Z,52.20
2023-05-24T09:36:38.479Z,52.14
2023-05-24T09:37:38.668Z,52.95
2023-05-24T09:38:38.616Z,52.60
2023-05-24T09:39:38.697Z,53.50
2023-05-24T09:40:38.794Z,54.23
2023-05-24T09:41:39.020Z,54.21
2023-05-24T09:42:39.055Z,54.68
2023-05-24T09:43:46.581Z,54.73
2023-05-24T09:44:39.318Z,54.17
2023-05-24T09:45:39.238Z,54.09
2023-05-24T09:46:39.334Z,54.08
2023-05-24T09:47:39.412Z,54.14
2023-05-24T09:48:39.470Z,53.32
2023-05-24T09:49:39.586Z,54.00
2023-05-24T09:50:39.689Z,53.51
2023-05-24T09:51:39.763Z,53.58
2023-05-24T09:52:43.921Z,54.39
2023-05-24T09:53:39.864Z,54.13
2023-05-24T09:54:39.967Z,54.13
2023-05-24T09:55:40.081Z,54.28
2023-05-24T09:56:40.158Z,54.27
2023-05-24T09:57:40.253Z,53.68
2023-05-24T09:58:40.321Z,53.02
2023-05-24T09:59:40.418Z,51.45
2023-05-24T10:00:40.582Z,50.61
2023-05-24T10:01:40.630Z,50.05
2023-05-24T10:02:51.707Z,48.45
2023-05-24T10:03:40.830Z,47.27
2023-05-24T10:04:40.880Z,46.54
2023-05-24T10:05:40.927Z,46.32
2023-05-24T10:06:41.002Z,46.19
2023-05-24T10:07:41.116Z,46.51
2023-05-24T10:08:41.243Z,44.87
2023-05-24T10:09:41.354Z,45.63
2023-05-24T10:10:41.640Z,43.92
2023-05-24T10:11:41.457Z,43.82
2023-05-24T10:12:41.513Z,44.63
2023-05-24T10:13:41.601Z,45.40
2023-05-24T10:14:41.728Z,45.43
2023-05-24T10:15:41.740Z,45.98
2023-05-24T10:16:41.844Z,47.53
2023-05-24T10:17:41.911Z,48.66
2023-05-24T10:18:41.964Z,48.91
2023-05-24T10:19:42.074Z,49.36
2023-05-24T10:20:42.641Z,48.72
2023-05-24T10:21:42.277Z,49.50
2023-05-24T10:22:42.281Z,49.96
2023-05-24T10:23:43.132Z,50.52
2023-05-24T10:24:42.452Z,52.16
2023-05-24T10:25:42.516Z,52.65
2023-05-24T10:26:42.611Z,53.04
2023-05-24T10:27:42.631Z,53.39
2023-05-24T10:28:42.740Z,54.11
2023-05-24T10:29:42.836Z,53.45
2023-05-24T10:30:43.456Z,54.69
2023-05-24T10:31:43.027Z,54.16
2023-05-24T10:32:43.096Z,53.19
2023-05-24T10:33:43.109Z,53.00
2023-05-24T10:34:43.195Z,52.13
2023-05-24T10:35:43.273Z,51.56
2023-05-24T10:36:43.315Z,52.14
2023-05-24T10:37:43.441Z,50.52
2023-05-24T10:38:43.480Z,48.97
2023-05-24T10:39:43.581Z,48.35
2023-05-24T10:40:43.646Z,48.00
2023-05-24T10:41:43.702Z,48.38
2023-05-24T10:42:43.791Z,48.43
2023-05-24T10:43:44.012Z,47.47
2023-05-24T10:44:43.969Z,48.24
2023-05-24T10:45:44.029Z,48.32
2023-05-24T10:46:44.140Z,49.46
2023-05-24T10:47:44.221Z,49.02
2023-05-24T10:48:44.249Z,48.66
2023-05-24T10:49:44.310Z,47.85
2023-05-24T10:50:44.814Z,46.92
2023-05-24T10:51:44.528Z,46.49
2023-05-24T10:52:44.568Z,46.77
2023-05-24T10:53:44.665Z,46.34
2023-05-24T10:54:52.662Z,46.22
2023-05-24T10:55:44.934Z,47.25
2023-05-24T10:56:44.921Z,48.39
2023-05-24T10:57:44.951Z,50.14
2023-05-24T10:58:45.048Z,51.85
2023-05-24T10:59:45.113Z,52.59
2023-05-24T11:00:45.180Z,53.18
2023-05-24T11:01:45.343Z,53.09
2023-05-24T11:02:45.351Z,53.56
2023-05-24T11:03:45.404Z,53.28
2023-05-24T11:04:45.447Z,53.44
2023-05-24T11:05:46.684Z,53.76
2023-05-24T11:06:45.620Z,53.22
2023-05-24T11:07:45.694Z,53.63
2023-05-24T11:08:45.796Z,53.71
2023-05-24T11:09:45.855Z,53.72
2023-05-24T11:10:46.637Z,52.36
2023-05-24T11:11:46.022Z,51.36
2023-05-24T11:12:46.114Z,51.00
2023-05-24T11:13:46.243Z,51.67
2023-05-24T11:14:46.234Z,52.14
2023-05-24T11:15:46.417Z,51.75
2023-05-24T11:16:46.508Z,52.67
2023-05-24T11:17:46.513Z,52.97
2023-05-24T11:18:46.638Z,52.68
2023-05-24T11:19:46.632Z,52.26
2023-05-24T11:20:47.083Z,52.62
2023-05-24T11:21:47.255Z,53.06
2023-05-24T11:22:46.910Z,53.24
2023-05-24T11:23:46.966Z,52.91
2023-05-24T11:24:47.069Z,52.19
2023-05-24T11:25:47.135Z,50.88
2023-05-24T11:26:47.248Z,49.86
2023-05-24T11:27:47.339Z,50.21
2023-05-24T11:28:47.357Z,49.45
2023-05-24T11:29:47.529Z,50.21
2023-05-24T11:30:49.129Z,49.18
2023-05-24T11:31:47.761Z,47.60
2023-05-24T11:32:47.817Z,46.22
2023-05-24T11:34:01.835Z,45.75
2023-05-24T11:34:47.814Z,46.54
2023-05-24T11:35:47.912Z,46.57
2023-05-24T11:36:55.185Z,46.53
2023-05-24T11:37:48.127Z,46.70
2023-05-24T11:38:48.160Z,47.98
2023-05-24T11:39:51.653Z,47.86
2023-05-24T11:40:48.290Z,47.81
2023-05-24T11:41:48.361Z,47.06
2023-05-24T11:43:02.467Z,46.86
2023-05-24T11:43:48.532Z,46.11
2023-05-24T11:44:48.616Z,44.90
2023-05-24T11:46:03.217Z,44.83
2023-05-24T11:46:48.786Z,45.50
2023-05-24T11:47:48.950Z,45.01
2023-05-24T11:49:03.187Z,44.02
2023-05-24T11:49:48.989Z,43.79
2023-05-24T11:50:50.146Z,44.90
2023-05-24T11:52:03.263Z,46.10
2023-05-24T11:52:49.286Z,47.11
2023-05-24T11:53:50.375Z,47.38
2023-05-24T11:55:00.370Z,47.83
2023-05-24T11:55:49.460Z,47.40
2023-05-24T11:56:49.610Z,45.90
2023-05-24T11:58:00.348Z,47.00
2023-05-24T11:58:49.714Z,48.11
2023-05-24T11:59:49.795Z,48.65
2023-05-24T12:01:00.809Z,49.42
2023-05-24T12:01:49.966Z,49.72
2023-05-24T12:02:50.125Z,47.64
2023-05-24T12:04:00.952Z,47.21
2023-05-24T12:04:50.224Z,46.33
2023-05-24T12:05:50.255Z,47.72
2023-05-24T12:06:59.537Z,46.91
2023-05-24T12:07:50.411Z,45.19
2023-05-24T12:08:50.489Z,45.01
2023-05-24T12:09:58.674Z,45.36
2023-05-24T12:10:50.615Z,45.69
2023-05-24T12:11:50.735Z,45.06
2023-05-24T12:12:57.715Z,44.85
2023-05-24T12:13:50.856Z,44.43
2023-05-24T12:14:50.991Z,44.43
2023-05-24T12:15:56.802Z,43.32
2023-05-24T12:16:51.120Z,42.57
2023-05-24T12:17:51.226Z,40.89
2023-05-24T12:19:03.768Z,39.41
2023-05-24T12:19:51.324Z,38.32
2023-05-24T12:20:51.404Z,38.74
2023-05-24T12:21:54.427Z,39.32
2023-05-24T12:22:51.603Z,40.92
2023-05-24T12:23:51.616Z,41.08
2023-05-24T12:24:54.728Z,40.11
2023-05-24T12:25:51.808Z,38.52
2023-05-24T12:26:51.895Z,39.16
2023-05-24T12:27:54.442Z,39.65
2023-05-24T12:28:52.041Z,40.74
2023-05-24T12:29:52.110Z,40.68
2023-05-24T12:30:52.258Z,42.26
2023-05-24T12:31:52.372Z,42.07
2023-05-24T12:32:52.427Z,41.38
2023-05-24T12:33:54.327Z,40.39
2023-05-24T12:34:52.563Z,40.29
2023-05-24T12:35:52.645Z,41.08
2023-05-24T12:36:52.718Z,41.03
2023-05-24T12:37:52.794Z,41.49
2023-05-24T12:38:52.952Z,42.47
2023-05-24T12:39:54.679Z,43.51
2023-05-24T12:41:08.265Z,43.40
2023-05-24T12:41:53.167Z,44.69
2023-05-24T12:42:53.228Z,44.76
2023-05-24T12:43:53.302Z,44.79
2023-05-24T12:44:53.367Z,44.91
2023-05-24T12:45:54.554Z,46.30
2023-05-24T12:46:53.564Z,46.72
2023-05-24T12:47:53.662Z,48.07
2023-05-24T12:48:53.695Z,49.06
2023-05-24T12:49:53.762Z,48.85
2023-05-24T12:50:53.826Z,48.75
2023-05-24T12:51:53.912Z,48.81
2023-05-24T12:52:53.970Z,48.80
2023-05-24T12:53:54.164Z,49.94